Time;durP1;ratioP1;P1;durP2;ratioP2;P2;SDS_P1;SDS_P2;PMS_P1;PMS_P2;Temp;Humidity;BMP_temperature;BMP_pressure;BME280_temperature;BME280_humidity;BME280_pressure;Samples;Min_cycle;Max_cycle;Signal;HPM_P1;HPM_P2
2021/05/12 00:03:42;;;;;;;2.35;1.67;;;;;;;13.12;82.02;94400.94;10391936;28;20155;-82
2021/05/12 00:08:42;;;;;;;2.00;1.67;;;;;;;12.98;84.02;94397.44;10409429;28;20026;-83
2021/05/12 00:13:42;;;;;;;5.03;1.47;;;;;;;12.92;86.48;94395.91;10409971;28;20487;-83
2021/05/12 00:18:45;;;;;;;1.60;1.50;;;;;;;12.97;85.73;94393.91;10409887;28;20450;-83
2021/05/12 00:24:01;;;;;;;2.85;1.98;;;;;;;12.95;86.80;94377.25;10409819;28;20682;-82
2021/05/12 00:29:03;;;;;;;2.53;1.52;;;;;;;12.87;88.38;94372.53;10409908;28;20030;-82
2021/05/12 00:34:04;;;;;;;6.07;1.75;;;;;;;12.79;89.55;94365.13;10391886;28;20418;-83
2021/05/12 00:39:06;;;;;;;4.10;1.80;;;;;;;12.80;90.58;94356.72;10417412;28;20029;-81
2021/05/12 00:44:15;;;;;;;2.10;1.90;;;;;;;12.76;91.64;94358.41;10416885;28;20392;-81
2021/05/12 00:49:15;;;;;;;1.75;1.60;;;;;;;12.68;92.49;94356.38;10399174;28;20187;-82
2021/05/12 00:54:16;;;;;;;2.35;1.90;;;;;;;12.65;93.95;94343.50;10416906;28;20124;-81
2021/05/12 00:59:17;;;;;;;7.03;2.03;;;;;;;12.65;93.62;94338.91;10414336;28;20034;-82
2021/05/12 01:04:17;;;;;;;7.18;2.33;;;;;;;12.40;95.34;94337.44;10407602;28;20124;-81
2021/05/12 01:09:18;;;;;;;2.87;1.97;;;;;;;12.39;95.56;94335.03;10409648;28;20033;-78
2021/05/12 01:14:18;;;;;;;2.88;1.90;;;;;;;12.31;95.69;94331.13;10389836;28;20102;-78
2021/05/12 01:19:19;;;;;;;3.90;2.60;;;;;;;12.12;97.43;94326.53;10408615;28;20025;-78
2021/05/12 01:24:20;;;;;;;4.95;1.88;;;;;;;12.06;98.77;94332.31;10407787;28;20029;-78
2021/05/12 01:29:20;;;;;;;6.93;2.45;;;;;;;12.13;97.74;94328.16;10388979;28;20054;-78
2021/05/12 01:34:21;;;;;;;2.30;2.08;;;;;;;12.10;97.94;94331.44;10407503;28;20100;-78
2021/05/12 01:39:21;;;;;;;4.15;2.33;;;;;;;12.08;97.66;94325.56;10407698;28;20464;-78
2021/05/12 01:44:22;;;;;;;3.87;3.00;;;;;;;12.08;98.09;94313.97;10407574;28;20049;-78
2021/05/12 01:49:25;;;;;;;7.35;2.22;;;;;;;12.08;99.00;94322.03;10406328;28;20787;-78
2021/05/12 01:54:26;;;;;;;4.22;2.40;;;;;;;11.96;98.50;94296.38;10407302;28;20037;-78
2021/05/12 01:59:26;;;;;;;5.93;2.20;;;;;;;12.06;98.45;94297.31;10406847;28;20041;-78
2021/05/12 02:04:27;;;;;;;3.05;2.30;;;;;;;12.11;98.18;94297.22;10407084;28;20026;-78
2021/05/12 02:09:27;;;;;;;3.83;2.13;;;;;;;12.12;97.82;94299.59;10406474;28;20037;-78
2021/05/12 02:14:27;;;;;;;4.43;2.10;;;;;;;12.14;97.16;94293.97;10388577;28;20131;-78
2021/05/12 02:19:28;;;;;;;4.03;2.33;;;;;;;12.14;98.64;94292.06;10405891;28;20033;-78
2021/05/12 02:24:28;;;;;;;3.88;2.42;;;;;;;12.09;100.00;94286.72;10406286;28;20029;-78
2021/05/12 02:29:29;;;;;;;9.00;2.40;;;;;;;12.08;100.00;94290.53;10405001;28;20038;-78
2021/05/12 02:34:29;;;;;;;8.03;3.63;;;;;;;12.01;100.00;94298.16;10404306;28;20029;-78
2021/05/12 02:39:29;;;;;;;5.07;2.43;;;;;;;11.96;100.00;94292.88;10404410;28;20345;-78
2021/05/12 02:44:30;;;;;;;4.68;2.42;;;;;;;11.93;100.00;94290.72;10405205;28;20045;-77
2021/05/12 02:49:30;;;;;;;7.37;2.67;;;;;;;11.72;100.00;94298.28;10404757;28;20025;-78
2021/05/12 02:54:31;;;;;;;8.30;2.83;;;;;;;11.58;100.00;94290.16;10405615;28;20087;-77
2021/05/12 02:59:31;;;;;;;4.45;3.15;;;;;;;11.51;100.00;94271.69;10404684;28;20029;-78
2021/05/12 03:04:32;;;;;;;6.40;3.38;;;;;;;11.38;100.00;94275.09;10404674;28;20021;-78
2021/05/12 03:09:32;;;;;;;5.28;4.10;;;;;;;11.28;100.00;94279.50;10404525;28;20025;-77
2021/05/12 03:14:33;;;;;;;8.97;3.77;;;;;;;11.21;100.00;94287.13;10404249;28;20710;-78
2021/05/12 03:19:33;;;;;;;3.92;3.40;;;;;;;11.14;100.00;94285.88;10404163;28;20276;-78
2021/05/12 03:24:34;;;;;;;4.68;2.95;;;;;;;10.85;100.00;94292.91;10404121;28;20014;-77
2021/05/12 03:29:34;;;;;;;7.03;3.45;;;;;;;10.85;100.00;94290.22;10403348;28;20017;-78
2021/05/12 03:34:35;;;;;;;4.93;3.47;;;;;;;10.75;100.00;94274.22;10402586;28;20397;-78
2021/05/12 03:39:35;;;;;;;3.73;3.17;;;;;;;10.77;100.00;94275.53;10402253;28;20033;-78
2021/05/12 03:44:35;;;;;;;7.22;3.72;;;;;;;10.85;100.00;94262.53;10403635;28;20296;-77
2021/05/12 03:49:36;;;;;;;4.05;3.65;;;;;;;10.86;100.00;94270.31;10403745;28;20029;-77
2021/05/12 03:54:36;;;;;;;9.82;4.32;;;;;;;10.84;100.00;94269.00;10403649;28;20037;-77
2021/05/12 03:59:37;;;;;;;5.43;4.20;;;;;;;10.63;100.00;94274.59;10403424;28;20036;-77
2021/05/12 04:04:37;;;;;;;8.57;4.05;;;;;;;10.75;100.00;94272.31;10403636;28;20404;-78
2021/05/12 04:09:37;;;;;;;8.20;3.50;;;;;;;10.85;100.00;94270.59;10385965;28;20025;-78
2021/05/12 04:14:38;;;;;;;8.27;4.20;;;;;;;11.07;100.00;94259.34;10410621;28;20116;-78
2021/05/12 04:19:38;;;;;;;6.70;4.13;;;;;;;11.26;100.00;94262.84;10393124;28;20061;-78
2021/05/12 04:24:39;;;;;;;12.65;5.95;;;;;;;11.46;100.00;94251.00;10410421;28;20404;-78
2021/05/12 04:29:40;;;;;;;10.73;4.50;;;;;;;11.64;100.00;94245.94;10410250;28;20041;-80
2021/05/12 04:34:40;;;;;;;7.05;4.57;;;;;;;11.86;100.00;94248.03;10410052;28;20033;-79
2021/05/12 04:39:41;;;;;;;5.68;3.90;;;;;;;12.33;100.00;94244.59;10409937;28;20025;-78
2021/05/12 04:44:41;;;;;;;12.20;3.95;;;;;;;12.97;100.00;94234.78;10409418;28;20037;-80
2021/05/12 04:49:41;;;;;;;6.45;3.50;;;;;;;13.84;100.00;94229.44;10409462;28;20021;-78
2021/05/12 04:54:42;;;;;;;5.47;3.40;;;;;;;14.10;93.02;94228.81;10389881;28;20022;-79
2021/05/12 04:59:42;;;;;;;5.83;3.50;;;;;;;14.45;93.78;94226.31;10405704;28;20140;-79
2021/05/12 05:04:43;;;;;;;6.17;2.87;;;;;;;15.23;85.70;94224.28;10408857;28;20026;-77
2021/05/12 05:09:43;;;;;;;7.40;4.03;;;;;;;15.80;84.29;94215.31;10408521;28;20120;-78
2021/05/12 05:14:43;;;;;;;7.13;3.37;;;;;;;16.56;77.81;94201.16;10407913;28;20071;-78
2021/05/12 05:19:44;;;;;;;8.60;4.17;;;;;;;16.99;74.31;94193.19;10407721;28;20041;-78
2021/05/12 05:24:44;;;;;;;7.68;3.40;;;;;;;17.15;70.45;94180.66;10407569;28;20025;-78
2021/05/12 05:29:45;;;;;;;9.07;3.45;;;;;;;17.45;68.47;94188.75;10407218;28;20021;-78
2021/05/12 05:34:45;;;;;;;7.53;3.10;;;;;;;17.94;63.43;94190.97;10407387;28;20136;-78
2021/05/12 05:39:46;;;;;;;8.45;3.50;;;;;;;18.45;59.68;94179.94;10407352;28;20302;-78
2021/05/12 05:44:48;;;;;;;9.27;3.10;;;;;;;18.79;60.42;94172.50;10406581;28;20444;-78
2021/05/12 05:49:48;;;;;;;20.38;2.55;;;;;;;19.29;53.44;94163.19;10406177;28;20025;-78
2021/05/12 05:54:48;;;;;;;4.63;2.78;;;;;;;19.22;55.71;94162.97;10406426;28;20033;-76
2021/05/12 05:59:49;;;;;;;5.30;3.20;;;;;;;19.60;52.93;94158.28;10388383;28;20363;-77
2021/05/12 06:04:49;;;;;;;6.27;2.47;;;;;;;19.92;49.50;94155.69;10405923;28;20033;-77
2021/05/12 06:09:49;;;;;;;8.20;2.80;;;;;;;21.15;48.72;94149.53;10406621;28;20036;-77
2021/05/12 06:14:50;;;;;;;6.27;3.23;;;;;;;21.31;46.23;94135.03;10406137;28;20027;-78
2021/05/12 06:19:51;;;;;;;6.82;2.30;;;;;;;22.40;44.23;94129.84;10405324;28;20112;-78
2021/05/12 06:24:51;;;;;;;7.07;3.13;;;;;;;22.80;43.22;94118.41;10404131;28;20025;-78
2021/05/12 06:29:52;;;;;;;6.68;3.05;;;;;;;23.61;40.86;94112.94;10405222;28;20025;-78
2021/05/12 06:34:52;;;;;;;72.07;13.53;;;;;;;24.10;40.09;94112.00;10404021;28;20029;-78
2021/05/12 06:39:53;;;;;;;5.65;2.95;;;;;;;24.63;38.28;94102.75;10404273;28;20025;-78
2021/05/12 06:44:53;;;;;;;3.65;1.80;;;;;;;25.20;36.49;94107.91;10403227;28;20065;-78
2021/05/12 06:49:53;;;;;;;8.23;1.27;;;;;;;25.92;35.09;94102.03;10403310;28;20033;-78
2021/05/12 06:54:54;;;;;;;6.07;1.37;;;;;;;26.43;33.91;94103.78;10404185;28;20033;-78
2021/05/12 06:59:54;;;;;;;6.97;1.30;;;;;;;26.72;35.00;94098.34;10404047;28;20034;-78
2021/05/12 07:04:54;;;;;;;5.67;1.40;;;;;;;26.91;32.79;94083.38;10404021;28;20021;-79
2021/05/12 07:09:55;;;;;;;8.33;1.30;;;;;;;27.37;32.56;94090.06;10404049;28;20264;-77
2021/05/12 07:14:56;;;;;;;7.93;1.42;;;;;;;28.21;31.29;94082.28;10404408;28;20030;-78
2021/05/12 07:19:56;;;;;;;7.07;1.30;;;;;;;27.73;33.61;94087.22;10403577;28;20033;-78
2021/05/12 07:24:57;;;;;;;6.18;1.42;;;;;;;28.49;31.85;94078.56;10402961;28;20124;-78
2021/05/12 07:29:57;;;;;;;6.55;1.35;;;;;;;29.48;29.81;94072.66;10402937;28;20040;-78
2021/05/12 07:34:58;;;;;;;7.82;1.55;;;;;;;28.80;31.36;94071.28;10401153;28;20033;-78
2021/05/12 07:39:58;;;;;;;8.88;2.40;;;;;;;29.86;29.29;94051.69;10403152;28;20037;-78
2021/05/12 07:44:59;;;;;;;8.60;3.30;;;;;;;30.03;29.65;94049.91;10402744;28;20069;-77
2021/05/12 07:49:59;;;;;;;10.43;1.80;;;;;;;29.81;29.77;94045.38;10409552;28;20307;-78
2021/05/12 07:55:00;;;;;;;34.73;5.53;;;;;;;29.74;30.56;94039.16;10408905;28;20405;-78
2021/05/12 08:00:02;;;;;;;24.03;3.23;;;;;;;30.85;28.86;94026.53;10409265;28;20029;-78
2021/05/12 08:05:03;;;;;;;25.77;3.78;;;;;;;31.05;28.12;94008.38;10411147;28;20264;-78
2021/05/12 08:10:05;;;;;;;115.32;17.10;;;;;;;31.42;27.87;94015.63;10410848;28;20025;-78
2021/05/12 08:15:06;;;;;;;34.85;7.60;;;;;;;32.00;27.51;94022.88;10410596;28;20400;-78
2021/05/12 08:20:07;;;;;;;191.95;13.75;;;;;;;32.05;27.84;94016.78;10410982;28;20037;-78
2021/05/12 08:25:08;;;;;;;4.35;1.40;;;;;;;33.67;25.63;94009.31;10410175;28;20505;-78
2021/05/12 08:30:11;;;;;;;55.92;12.00;;;;;;;34.18;24.69;93995.50;10409957;28;20044;-78
2021/05/12 08:35:11;;;;;;;11.20;2.63;;;;;;;34.14;26.34;93992.03;10409650;28;20026;-78
2021/05/12 08:40:12;;;;;;;11.00;2.33;;;;;;;31.28;27.52;93988.16;10409354;28;20065;-78
2021/05/12 08:45:13;;;;;;;9.57;1.40;;;;;;;31.43;27.07;93977.56;10409128;28;20128;-78
2021/05/12 08:50:14;;;;;;;6.57;1.30;;;;;;;31.58;27.17;93970.53;10409287;28;20025;-78
2021/05/12 08:55:14;;;;;;;3.30;1.30;;;;;;;30.70;26.92;93971.72;10408794;28;20681;-78
2021/05/12 09:00:15;;;;;;;6.57;1.40;;;;;;;30.95;28.26;93968.50;10409150;28;20060;-78
2021/05/12 09:05:16;;;;;;;4.20;1.80;;;;;;;30.51;28.83;93971.22;10409248;28;20808;-78
2021/05/12 09:10:16;;;;;;;5.28;1.48;;;;;;;31.08;26.84;93966.72;10408762;28;20022;-78
2021/05/12 09:15:18;;;;;;;4.55;1.33;;;;;;;31.86;25.41;93952.47;10408739;28;20068;-78
2021/05/12 09:20:19;;;;;;;3.28;1.05;;;;;;;30.39;27.31;93955.16;10408520;28;20099;-78
2021/05/12 09:25:19;;;;;;;3.37;1.47;;;;;;;28.80;30.19;93949.59;10407961;28;20030;-77
2021/05/12 09:30:22;;;;;;;11.07;1.40;;;;;;;31.62;29.13;93939.91;10408020;28;20036;-77
2021/05/12 09:35:23;;;;;;;9.60;3.03;;;;;;;30.53;29.38;93937.53;10408086;28;20033;-78
2021/05/12 09:40:23;;;;;;;7.03;1.50;;;;;;;29.10;31.28;93948.09;10407526;28;20075;-78
2021/05/12 09:45:25;;;;;;;4.83;1.20;;;;;;;27.58;31.85;93945.69;10407650;28;20052;-77
2021/05/12 09:50:36;;;;;;;6.28;1.17;;;;;;;28.53;31.56;93943.88;10389584;28;20049;-77
2021/05/12 09:55:42;;;;;;;8.15;1.80;;;;;;;28.49;30.89;93945.88;10407262;28;20037;-78
2021/05/12 10:00:44;;;;;;;8.70;1.98;;;;;;;29.22;31.20;93935.72;10406369;28;20030;-77
2021/05/12 10:05:55;;;;;;;3.65;1.83;;;;;;;29.53;30.85;93934.97;10405504;28;20018;-78
2021/05/12 10:11:01;;;;;;;19.05;2.65;;;;;;;28.53;32.05;93927.28;10404457;28;20025;-78
2021/05/12 10:16:05;;;;;;;5.40;1.63;;;;;;;29.04;31.63;93916.56;10406017;28;20072;-78
2021/05/12 10:21:08;;;;;;;5.05;1.60;;;;;;;28.28;32.23;93922.75;10405974;28;20397;-77
2021/05/12 10:26:09;;;;;;;9.90;2.05;;;;;;;26.93;35.72;93914.78;10405471;28;20078;-77
2021/05/12 10:31:11;;;;;;;16.77;2.45;;;;;;;26.31;36.27;93911.31;10387876;28;20108;-77
2021/05/12 10:36:12;;;;;;;6.03;2.45;;;;;;;26.06;38.24;93903.84;10405498;28;20021;-77
2021/05/12 10:41:38;;;;;;;6.25;2.30;;;;;;;26.09;37.91;93908.59;10405253;28;20025;-77
2021/05/12 10:47:01;;;;;;;5.45;2.65;;;;;;;26.00;36.65;93901.88;10405324;28;20509;-77
2021/05/12 10:52:09;;;;;;;4.53;2.05;;;;;;;25.74;36.42;93888.06;10404274;28;20144;-77
2021/05/12 10:57:30;;;;;;;7.07;2.78;;;;;;;25.27;37.36;93891.84;10404021;28;20535;-77
2021/05/12 11:03:03;;;;;;;11.07;2.70;;;;;;;24.63;39.43;93893.94;10404137;28;20061;-77
2021/05/12 11:08:17;;;;;;;7.10;2.20;;;;;;;24.66;41.93;93882.19;10404288;28;20048;-77
2021/05/12 11:13:22;;;;;;;9.30;2.33;;;;;;;24.52;40.44;93876.59;10412722;28;20523;-77
2021/05/12 11:18:52;;;;;;;5.90;2.20;;;;;;;24.17;41.81;93880.69;10404578;28;20049;-77
2021/05/12 11:24:05;;;;;;;3.20;1.67;;;;;;;24.56;41.23;93869.94;10390078;28;20072;-77
2021/05/12 11:31:27;;;;;;;6.13;2.10;;;;;;;25.26;40.71;93860.81;10404706;28;20043;-77
2021/05/12 11:34:29;;;;;;;4.93;1.63;;;;;;;26.01;38.99;93843.69;10403454;28;20049;-77
2021/05/12 11:39:29;;;;;;;5.00;1.88;;;;;;;26.48;38.48;93832.56;10404324;28;20048;-77
2021/05/12 11:44:30;;;;;;;4.60;1.85;;;;;;;26.57;37.35;93826.66;10405122;28;20052;-77
2021/05/12 11:49:30;;;;;;;5.17;1.70;;;;;;;26.72;37.74;93828.22;10387130;28;20029;-77
2021/05/12 11:54:31;;;;;;;8.27;2.23;;;;;;;26.47;37.78;93821.94;10404011;28;20290;-77
2021/05/12 11:59:38;;;;;;;7.03;2.00;;;;;;;26.52;37.93;93816.81;10404416;28;20037;-77
2021/05/12 12:04:53;;;;;;;8.05;2.08;;;;;;;27.00;39.05;93803.66;10411675;28;20033;-77
2021/05/12 12:10:05;;;;;;;12.18;1.80;;;;;;;26.78;38.60;93803.78;10414410;28;20033;-78
2021/05/12 12:15:12;;;;;;;9.13;2.45;;;;;;;26.42;38.54;93796.38;10403960;28;20389;-77
2021/05/12 12:20:12;;;;;;;4.30;1.83;;;;;;;26.04;39.93;93787.81;10403261;28;20094;-77
2021/05/12 12:25:18;;;;;;;3.95;1.88;;;;;;;25.34;40.83;93790.13;10402296;28;20114;-77
2021/05/12 12:30:18;;;;;;;8.77;2.40;;;;;;;24.72;41.88;93769.94;10402895;28;20052;-77
2021/05/12 12:35:19;;;;;;;5.13;2.23;;;;;;;24.70;42.42;93764.06;10409899;28;20034;-77
2021/05/12 12:40:22;;;;;;;2.63;1.87;;;;;;;24.86;42.17;93753.50;10409834;28;20025;-77
2021/05/12 12:45:29;;;;;;;4.03;2.17;;;;;;;24.85;43.32;93757.44;10408797;28;20052;-77
2021/05/12 12:50:32;;;;;;;4.05;2.28;;;;;;;24.82;43.22;93751.91;10406748;28;20037;-76
2021/05/12 12:55:37;;;;;;;10.05;2.40;;;;;;;24.59;42.83;93772.22;10407435;28;20134;-78
2021/05/12 13:00:45;;;;;;;5.63;2.10;;;;;;;24.51;43.26;93767.88;10406723;28;20400;-78
2021/05/12 13:05:51;;;;;;;7.22;2.08;;;;;;;24.61;43.26;93766.38;10406494;28;20051;-75
2021/05/12 13:10:55;;;;;;;2.10;1.70;;;;;;;24.75;43.72;93771.91;10406679;28;20083;-77
2021/05/12 13:15:57;;;;;;;4.57;2.20;;;;;;;24.09;44.67;93767.28;10406445;28;20373;-77
2021/05/12 13:21:01;;;;;;;7.78;2.10;;;;;;;22.55;48.96;93789.38;10406360;28;20441;-78
2021/05/12 13:26:03;;;;;;;3.70;1.92;;;;;;;22.04;52.58;93792.59;10389229;28;20025;-77
2021/05/12 13:31:04;;;;;;;2.90;2.22;;;;;;;21.92;54.15;93794.38;10389301;28;20036;-78
2021/05/12 13:36:04;;;;;;;6.63;2.72;;;;;;;21.93;53.84;93779.53;10406889;28;20397;-77
2021/05/12 13:41:05;;;;;;;3.40;2.25;;;;;;;21.73;55.16;93780.81;10407040;28;20037;-78
2021/05/12 13:46:05;;;;;;;9.93;2.40;;;;;;;21.19;58.29;93788.09;10384862;28;605697;-78
2021/05/12 13:51:06;;;;;;;9.07;2.23;;;;;;;20.53;68.70;93794.28;10408598;28;20041;-77
2021/05/12 13:56:22;;;;;;;5.95;2.35;;;;;;;20.29;80.54;93792.63;10408051;28;20091;-77
2021/05/12 14:06:35;;;;;;;7.65;2.78;;;;;;;20.17;80.50;93790.03;10407819;28;20025;-77
2021/05/12 14:11:43;;;;;;;9.33;2.10;;;;;;;20.52;71.83;93797.38;10407110;28;20025;-77
2021/05/12 14:17:01;;;;;;;8.80;2.93;;;;;;;20.84;67.21;93806.22;10389541;28;20276;-77
2021/05/12 14:22:02;;;;;;;;;;;;;;;20.96;68.43;93803.31;10407374;28;20088;-78
2021/05/12 14:27:05;;;;;;;7.85;2.58;;;;;;;20.80;63.58;93802.63;10406050;28;20386;-77
2021/05/12 14:32:06;;;;;;;2.75;2.22;;;;;;;20.48;65.13;93795.38;10406349;28;20083;-78
2021/05/12 14:37:07;;;;;;;8.10;2.10;;;;;;;20.37;67.22;93785.38;10397796;28;20029;-77
2021/05/12 14:42:08;;;;;;;4.88;2.08;;;;;;;20.29;68.59;93787.19;10405313;28;20033;-78
2021/05/12 14:47:08;;;;;;;6.60;2.13;;;;;;;20.18;69.82;93786.94;10404284;28;20046;-78
2021/05/12 15:07:20;;;;;;;5.40;2.43;;;;;;;19.47;80.02;93771.31;10400911;28;20459;-77
2021/05/12 15:12:20;;;;;;;15.13;3.00;;;;;;;19.50;81.88;93772.53;10400526;28;20667;-77
2021/05/12 15:17:21;;;;;;;4.40;2.37;;;;;;;19.52;78.60;93761.28;10400562;28;20025;-76
2021/05/12 15:22:21;;;;;;;3.70;2.45;;;;;;;19.29;69.36;93759.22;10401786;28;20056;-76
2021/05/12 15:27:22;;;;;;;11.67;2.67;;;;;;;19.06;67.34;93759.03;10403739;28;20025;-76
2021/05/12 15:32:22;;;;;;;4.90;2.25;;;;;;;18.63;73.03;93753.25;10403425;28;20025;-76
2021/05/12 15:37:23;;;;;;;4.75;2.42;;;;;;;18.60;74.97;93754.75;10403404;28;20026;-76
2021/05/12 15:42:23;;;;;;;2.78;2.05;;;;;;;18.37;74.39;93759.16;10403455;28;20116;-76
2021/05/12 15:47:25;;;;;;;4.25;2.60;;;;;;;18.35;74.99;93751.34;10384788;28;20711;-76
2021/05/12 15:52:25;;;;;;;9.77;2.50;;;;;;;18.27;76.42;93731.31;10396725;28;20095;-77
2021/05/12 15:57:26;;;;;;;3.43;2.47;;;;;;;18.36;77.44;93735.81;10401692;28;20045;-77
2021/05/12 16:02:26;;;;;;;8.00;1.90;;;;;;;18.25;77.76;93736.31;10395331;28;20025;-77
2021/05/12 16:07:28;;;;;;;5.53;2.40;;;;;;;18.06;77.16;93734.22;10407841;28;20021;-77
2021/05/12 16:12:28;;;;;;;3.08;2.00;;;;;;;18.02;75.06;93733.31;10412165;28;20107;-76
2021/05/12 16:17:29;;;;;;;6.85;2.63;;;;;;;17.81;76.82;93732.69;10407856;28;20033;-77
2021/05/12 16:22:29;;;;;;;3.10;2.10;;;;;;;17.65;78.01;93738.03;10411475;28;20033;-76
2021/05/12 16:27:30;;;;;;;4.20;1.97;;;;;;;17.56;79.97;93743.59;10411392;28;20100;-76
2021/05/12 16:32:30;;;;;;;8.33;3.10;;;;;;;17.47;80.98;93743.72;10412475;28;20639;-76
2021/05/12 16:37:32;;;;;;;3.23;2.47;;;;;;;17.22;83.20;93756.53;10410463;28;20291;-76
2021/05/12 16:42:33;;;;;;;6.75;2.40;;;;;;;16.90;87.41;93751.63;10410981;28;20026;-76
2021/05/12 16:47:33;;;;;;;7.85;3.45;;;;;;;16.82;89.77;93736.19;10435949;28;20041;-77
2021/05/12 16:52:34;;;;;;;8.07;3.10;;;;;;;16.83;91.09;93735.09;10423643;28;20029;-77
2021/05/12 16:57:34;;;;;;;3.33;2.60;;;;;;;16.72;92.66;93755.63;10427811;28;20112;-77
2021/05/12 17:02:34;;;;;;;4.63;2.80;;;;;;;16.35;93.88;93759.03;10427126;28;20112;-77
2021/05/12 17:07:35;;;;;;;8.93;3.17;;;;;;;16.30;93.22;93751.09;10434578;28;20025;-77
2021/05/12 17:12:38;;;;;;;7.22;2.60;;;;;;;16.37;91.73;93742.44;10450333;28;20487;-78
2021/05/12 17:17:40;;;;;;;6.25;2.75;;;;;;;16.52;90.28;93779.78;10449704;28;20428;-77
2021/05/12 17:22:40;;;;;;;4.15;2.95;;;;;;;16.45;92.58;93838.38;10449720;28;20028;-78
2021/05/12 17:27:46;;;;;;;2.75;2.55;;;;;;;16.48;91.77;93854.81;10450179;28;20029;-78
2021/05/12 17:32:46;;;;;;;12.48;4.18;;;;;;;16.08;100.00;93895.91;10449554;28;20024;-77
2021/05/12 17:37:49;;;;;;;17.70;8.00;;;;;;;14.32;100.00;93932.59;10449303;28;20036;-78
2021/05/12 17:42:49;;;;;;;13.85;9.80;;;;;;;13.72;100.00;93963.75;10449569;28;20045;-79
2021/05/12 17:47:53;;;;;;;19.33;12.23;;;;;;;13.27;100.00;93992.41;10405860;28;20401;-79
2021/05/12 17:52:56;;;;;;;22.02;11.30;;;;;;;13.11;100.00;94027.03;10393169;28;20029;-78
2021/05/12 17:58:00;;;;;;;19.98;13.02;;;;;;;13.07;100.00;94041.44;10393225;28;20029;-78
2021/05/12 18:03:00;;;;;;;17.75;13.85;;;;;;;13.18;100.00;94060.91;10392477;28;20025;-78
2021/05/12 18:08:04;;;;;;;18.70;14.80;;;;;;;13.08;100.00;94073.50;10385454;28;20018;-78
2021/05/12 18:18:24;;;;;;;17.20;12.90;;;;;;;13.34;100.00;94087.22;10386496;28;20017;-78
2021/05/12 18:23:24;;;;;;;25.70;14.47;;;;;;;13.50;100.00;94070.66;10393240;28;20021;-78
2021/05/12 18:28:25;;;;;;;23.67;13.80;;;;;;;13.48;100.00;94062.09;10388305;28;20279;-77
2021/05/12 18:33:28;;;;;;;22.43;13.20;;;;;;;13.50;100.00;94057.97;10379595;28;20280;-77
2021/05/12 18:38:32;;;;;;;15.73;12.02;;;;;;;13.57;100.00;94067.53;10388723;28;20040;-78
2021/05/12 18:43:32;;;;;;;21.98;14.20;;;;;;;13.54;100.00;94062.75;10403933;28;20087;-76
2021/05/12 18:48:33;;;;;;;39.20;16.20;;;;;;;13.50;100.00;94062.56;10441109;28;20029;-77
2021/05/12 18:53:33;;;;;;;21.97;14.80;;;;;;;13.43;100.00;94071.09;10425674;28;20658;-77
2021/05/12 18:58:33;;;;;;;28.20;15.32;;;;;;;13.36;100.00;94072.66;10425527;28;20108;-77
2021/05/12 19:03:34;;;;;;;22.00;15.93;;;;;;;13.53;100.00;94078.16;10392575;28;20111;-77
2021/05/12 19:24:17;;;;;;;21.10;16.70;;;;;;;13.36;100.00;94102.34;10392282;28;20508;-78
2021/05/12 19:44:59;;;;;;;19.70;14.70;;;;;;;13.21;100.00;94084.56;10454676;28;20053;-78
2021/05/12 19:50:01;;;;;;;20.20;13.10;;;;;;;13.13;100.00;94081.50;10443039;28;20025;-78
2021/05/12 20:00:03;;;;;;;20.05;14.02;;;;;;;12.92;100.00;94056.06;10423441;28;20087;-78
2021/05/12 20:05:07;;;;;;;18.35;13.55;;;;;;;12.81;100.00;94061.69;10392913;28;20030;-79
2021/05/12 20:15:12;;;;;;;20.75;13.68;;;;;;;12.87;100.00;94051.59;10371109;28;20034;-80
2021/05/12 20:20:12;;;;;;;13.18;11.60;;;;;;;12.86;100.00;94044.59;10370599;28;20029;-79
2021/05/12 20:25:13;;;;;;;11.38;9.40;;;;;;;12.88;100.00;94020.03;10370906;28;20099;-79
2021/05/12 20:30:15;;;;;;;11.65;10.10;;;;;;;12.83;100.00;94016.34;10371102;28;20033;-79
2021/05/12 20:40:34;;;;;;;10.85;7.82;;;;;;;12.93;100.00;94019.91;10369250;28;20034;-79
2021/05/12 20:45:35;;;;;;;15.27;9.00;;;;;;;12.87;100.00;94021.16;10369466;28;20069;-78
2021/05/12 20:50:35;;;;;;;9.63;8.27;;;;;;;12.90;100.00;94028.63;10369561;28;20140;-78
2021/05/12 20:55:36;;;;;;;10.00;8.57;;;;;;;12.91;100.00;94032.94;10368430;28;20088;-78
2021/05/12 21:00:36;;;;;;;12.40;9.53;;;;;;;13.16;100.00;94045.81;10404118;28;20272;-79
2021/05/12 21:05:36;;;;;;;13.27;9.88;;;;;;;13.24;100.00;94035.38;10409925;28;20029;-79
2021/05/12 21:10:38;;;;;;;12.60;10.10;;;;;;;13.30;100.00;94040.34;10409512;28;20025;-79
2021/05/12 21:15:39;;;;;;;18.55;11.63;;;;;;;13.47;100.00;94053.19;10409523;28;20451;-79
2021/05/12 21:20:47;;;;;;;11.60;10.10;;;;;;;13.54;100.00;94057.38;10409616;28;20091;-78
2021/05/12 21:25:51;;;;;;;13.05;9.02;;;;;;;13.63;100.00;94056.31;10412623;28;20025;-82
2021/05/12 21:30:59;;;;;;;12.68;8.43;;;;;;;13.59;100.00;94049.13;10415186;28;20068;-82
2021/05/12 21:36:01;;;;;;;9.07;7.33;;;;;;;13.42;100.00;94023.59;10397377;28;20260;-82
2021/05/12 21:41:02;;;;;;;9.20;8.23;;;;;;;13.37;100.00;94018.34;10414834;28;20751;-82
2021/05/12 21:46:03;;;;;;;12.55;10.02;;;;;;;13.18;100.00;94023.13;10413527;28;20045;-82
2021/05/12 21:51:04;;;;;;;14.57;11.43;;;;;;;13.18;100.00;94028.53;10415007;28;20029;-82
2021/05/12 21:56:09;;;;;;;16.13;11.10;;;;;;;13.34;100.00;94041.31;10414334;28;20041;-81
2021/05/12 22:01:11;;;;;;;12.68;9.93;;;;;;;13.40;100.00;94033.16;10410013;28;20504;-81
2021/05/12 22:32:14;;;;;;;18.92;11.68;;;;;;;13.06;100.00;93988.59;10411073;28;20112;-82
2021/05/12 22:37:15;;;;;;;15.13;11.98;;;;;;;13.03;100.00;93990.00;10411292;28;20117;-82
2021/05/12 22:42:15;;;;;;;18.63;13.60;;;;;;;13.08;100.00;93981.78;10409746;28;20033;-82
2021/05/12 22:47:16;;;;;;;21.47;13.13;;;;;;;13.08;100.00;93984.47;10409582;28;20042;-83
2021/05/12 22:52:17;;;;;;;15.90;12.73;;;;;;;13.15;100.00;93984.84;10410991;28;20032;-82
2021/05/12 22:57:17;;;;;;;18.35;12.60;;;;;;;13.23;100.00;93980.63;10413297;28;20034;-82
2021/05/12 23:02:18;;;;;;;19.23;13.75;;;;;;;13.19;100.00;93984.25;10394872;28;20452;-82
2021/05/12 23:07:19;;;;;;;14.95;12.68;;;;;;;13.20;100.00;93978.53;10413131;28;20032;-82
2021/05/12 23:12:19;;;;;;;20.50;13.00;;;;;;;13.17;100.00;93984.53;10411014;28;20736;-82
2021/05/12 23:17:20;;;;;;;11.48;10.07;;;;;;;12.95;100.00;93977.28;10406877;28;20029;-83
2021/05/12 23:22:21;;;;;;;13.00;9.93;;;;;;;12.91;100.00;93970.91;10405894;28;20030;-82
2021/05/12 23:27:22;;;;;;;10.10;8.80;;;;;;;12.83;100.00;93962.41;10390131;28;20361;-82
2021/05/12 23:32:22;;;;;;;14.13;9.05;;;;;;;12.87;100.00;93951.81;10412064;28;20026;-82
2021/05/12 23:37:23;;;;;;;14.43;10.27;;;;;;;12.82;100.00;93955.44;10411523;28;20487;-81
2021/05/12 23:42:32;;;;;;;14.13;11.68;;;;;;;12.65;100.00;93948.00;10410468;28;20040;-81
2021/05/12 23:47:32;;;;;;;14.05;10.02;;;;;;;12.60;100.00;93953.53;10410048;28;20049;-81
2021/05/12 23:52:33;;;;;;;14.73;10.97;;;;;;;12.62;100.00;93953.22;10409633;28;20485;-81
2021/05/12 23:57:33;;;;;;;16.10;12.10;;;;;;;12.58;100.00;93958.41;10408185;28;20284;-81
